sensor_id;sensor_type;location;lat;lon;timestamp;temperature;humidity
32400;DHT22;45045;45.440;9.178;2023-06-26T00:00:24;30.70;62.40
32400;DHT22;45045;45.440;9.178;2023-06-26T00:02:51;30.70;62.50
32400;DHT22;45045;45.440;9.178;2023-06-26T00:05:18;30.70;62.30
32400;DHT22;45045;45.440;9.178;2023-06-26T00:07:43;30.70;62.30
32400;DHT22;45045;45.440;9.178;2023-06-26T00:10:09;30.70;62.30
32400;DHT22;45045;45.440;9.178;2023-06-26T00:12:34;30.60;62.70
32400;DHT22;45045;45.440;9.178;2023-06-26T00:15:01;30.70;62.60
32400;DHT22;45045;45.440;9.178;2023-06-26T00:17:26;30.60;63.00
32400;DHT22;45045;45.440;9.178;2023-06-26T00:19:52;30.50;63.50
32400;DHT22;45045;45.440;9.178;2023-06-26T00:22:18;30.40;63.80
32400;DHT22;45045;45.440;9.178;2023-06-26T00:24:44;30.40;63.90
32400;DHT22;45045;45.440;9.178;2023-06-26T00:27:13;30.50;63.90
32400;DHT22;45045;45.440;9.178;2023-06-26T00:29:38;30.40;64.00
32400;DHT22;45045;45.440;9.178;2023-06-26T00:32:06;30.30;64.30
32400;DHT22;45045;45.440;9.178;2023-06-26T00:34:32;30.20;64.60
32400;DHT22;45045;45.440;9.178;2023-06-26T00:36:59;30.40;64.50
32400;DHT22;45045;45.440;9.178;2023-06-26T00:39:25;30.20;64.60
32400;DHT22;45045;45.440;9.178;2023-06-26T00:41:51;30.30;64.60
32400;DHT22;45045;45.440;9.178;2023-06-26T00:44:19;30.30;64.80
32400;DHT22;45045;45.440;9.178;2023-06-26T00:46:45;30.30;64.80
32400;DHT22;45045;45.440;9.178;2023-06-26T00:49:12;30.40;64.80
32400;DHT22;45045;45.440;9.178;2023-06-26T00:51:38;30.40;64.60
32400;DHT22;45045;45.440;9.178;2023-06-26T00:54:03;30.30;64.60
32400;DHT22;45045;45.440;9.178;2023-06-26T00:56:31;30.20;65.20
32400;DHT22;45045;45.440;9.178;2023-06-26T00:58:57;30.40;65.00
32400;DHT22;45045;45.440;9.178;2023-06-26T01:01:24;30.50;64.70
32400;DHT22;45045;45.440;9.178;2023-06-26T01:03:51;30.30;65.00
32400;DHT22;45045;45.440;9.178;2023-06-26T01:06:22;30.40;65.20
32400;DHT22;45045;45.440;9.178;2023-06-26T01:08:49;30.50;64.80
32400;DHT22;45045;45.440;9.178;2023-06-26T01:11:15;30.30;65.30
32400;DHT22;45045;45.440;9.178;2023-06-26T01:13:42;30.30;65.10
32400;DHT22;45045;45.440;9.178;2023-06-26T01:16:09;30.30;65.50
32400;DHT22;45045;45.440;9.178;2023-06-26T01:18:37;30.30;65.60
32400;DHT22;45045;45.440;9.178;2023-06-26T01:21:09;30.30;65.70
32400;DHT22;45045;45.440;9.178;2023-06-26T01:26:27;30.20;66.10
32400;DHT22;45045;45.440;9.178;2023-06-26T01:28:56;30.00;66.40
32400;DHT22;45045;45.440;9.178;2023-06-26T01:31:24;29.90;66.80
32400;DHT22;45045;45.440;9.178;2023-06-26T01:33:50;29.90;66.70
32400;DHT22;45045;45.440;9.178;2023-06-26T01:36:17;30.20;66.50
32400;DHT22;45045;45.440;9.178;2023-06-26T01:38:42;30.30;66.00
32400;DHT22;45045;45.440;9.178;2023-06-26T01:41:10;30.40;65.40
32400;DHT22;45045;45.440;9.178;2023-06-26T01:46:42;30.40;65.50
32400;DHT22;45045;45.440;9.178;2023-06-26T01:49:31;30.30;65.50
32400;DHT22;45045;45.440;9.178;2023-06-26T01:54:56;30.40;65.60
32400;DHT22;45045;45.440;9.178;2023-06-26T01:57:24;30.40;65.40
32400;DHT22;45045;45.440;9.178;2023-06-26T01:59:52;30.40;65.30
32400;DHT22;45045;45.440;9.178;2023-06-26T02:02:18;30.30;65.50
32400;DHT22;45045;45.440;9.178;2023-06-26T02:04:44;30.30;65.90
32400;DHT22;45045;45.440;9.178;2023-06-26T02:07:10;30.20;66.10
32400;DHT22;45045;45.440;9.178;2023-06-26T02:09:35;30.20;66.00
32400;DHT22;45045;45.440;9.178;2023-06-26T02:12:01;30.30;65.90
32400;DHT22;45045;45.440;9.178;2023-06-26T02:14:27;30.30;65.90
32400;DHT22;45045;45.440;9.178;2023-06-26T02:16:53;30.30;66.10
32400;DHT22;45045;45.440;9.178;2023-06-26T02:19:19;30.20;65.90
32400;DHT22;45045;45.440;9.178;2023-06-26T02:21:49;30.30;65.80
32400;DHT22;45045;45.440;9.178;2023-06-26T02:24:15;30.30;65.90
32400;DHT22;45045;45.440;9.178;2023-06-26T02:26:40;30.30;66.10
32400;DHT22;45045;45.440;9.178;2023-06-26T02:29:06;30.30;65.90
32400;DHT22;45045;45.440;9.178;2023-06-26T02:31:32;30.30;65.80
32400;DHT22;45045;45.440;9.178;2023-06-26T02:33:58;30.10;66.30
32400;DHT22;45045;45.440;9.178;2023-06-26T02:36:23;29.90;66.80
32400;DHT22;45045;45.440;9.178;2023-06-26T02:38:49;30.00;67.20
32400;DHT22;45045;45.440;9.178;2023-06-26T02:41:15;30.10;66.70
32400;DHT22;45045;45.440;9.178;2023-06-26T02:43:40;29.90;67.00
32400;DHT22;45045;45.440;9.178;2023-06-26T02:46:06;29.90;67.20
32400;DHT22;45045;45.440;9.178;2023-06-26T02:48:31;29.80;67.50
32400;DHT22;45045;45.440;9.178;2023-06-26T02:50:57;29.80;67.60
32400;DHT22;45045;45.440;9.178;2023-06-26T02:53:23;29.80;67.70
32400;DHT22;45045;45.440;9.178;2023-06-26T02:55:51;29.90;67.40
32400;DHT22;45045;45.440;9.178;2023-06-26T02:58:17;29.80;67.50
32400;DHT22;45045;45.440;9.178;2023-06-26T03:00:44;29.90;67.50
32400;DHT22;45045;45.440;9.178;2023-06-26T03:03:10;29.80;67.60
32400;DHT22;45045;45.440;9.178;2023-06-26T03:05:38;29.80;67.80
32400;DHT22;45045;45.440;9.178;2023-06-26T03:08:04;29.80;67.70
32400;DHT22;45045;45.440;9.178;2023-06-26T03:10:30;29.90;67.30
32400;DHT22;45045;45.440;9.178;2023-06-26T03:12:56;29.90;67.40
32400;DHT22;45045;45.440;9.178;2023-06-26T03:15:22;29.80;67.60
32400;DHT22;45045;45.440;9.178;2023-06-26T03:17:47;29.70;67.60
32400;DHT22;45045;45.440;9.178;2023-06-26T03:20:13;29.70;67.70
32400;DHT22;45045;45.440;9.178;2023-06-26T03:22:39;29.70;67.80
32400;DHT22;45045;45.440;9.178;2023-06-26T03:25:05;29.70;67.90
32400;DHT22;45045;45.440;9.178;2023-06-26T03:27:30;29.80;67.70
32400;DHT22;45045;45.440;9.178;2023-06-26T03:29:56;29.90;67.50
32400;DHT22;45045;45.440;9.178;2023-06-26T03:32:23;29.90;67.30
32400;DHT22;45045;45.440;9.178;2023-06-26T03:34:48;30.00;67.00
32400;DHT22;45045;45.440;9.178;2023-06-26T03:37:14;30.00;67.20
32400;DHT22;45045;45.440;9.178;2023-06-26T03:39:40;30.00;66.90
32400;DHT22;45045;45.440;9.178;2023-06-26T03:42:07;30.00;68.00
32400;DHT22;45045;45.440;9.178;2023-06-26T03:44:32;30.00;67.10
32400;DHT22;45045;45.440;9.178;2023-06-26T03:46:58;29.90;67.30
32400;DHT22;45045;45.440;9.178;2023-06-26T03:49:24;29.90;67.20
32400;DHT22;45045;45.440;9.178;2023-06-26T03:51:49;29.90;67.40
32400;DHT22;45045;45.440;9.178;2023-06-26T03:54:15;29.90;67.30
32400;DHT22;45045;45.440;9.178;2023-06-26T03:56:40;29.90;67.50
32400;DHT22;45045;45.440;9.178;2023-06-26T03:59:06;29.90;67.30
32400;DHT22;45045;45.440;9.178;2023-06-26T04:01:32;30.00;67.30
32400;DHT22;45045;45.440;9.178;2023-06-26T04:03:59;29.80;67.30
32400;DHT22;45045;45.440;9.178;2023-06-26T04:06:25;29.90;67.40
32400;DHT22;45045;45.440;9.178;2023-06-26T04:08:52;29.90;67.40
32400;DHT22;45045;45.440;9.178;2023-06-26T04:11:17;29.90;67.30
32400;DHT22;45045;45.440;9.178;2023-06-26T04:13:43;29.90;67.40
32400;DHT22;45045;45.440;9.178;2023-06-26T04:16:09;29.90;67.20
32400;DHT22;45045;45.440;9.178;2023-06-26T04:18:38;29.90;67.10
32400;DHT22;45045;45.440;9.178;2023-06-26T04:21:11;29.90;67.20
32400;DHT22;45045;45.440;9.178;2023-06-26T04:23:41;29.80;67.40
32400;DHT22;45045;45.440;9.178;2023-06-26T04:26:07;29.70;67.60
32400;DHT22;45045;45.440;9.178;2023-06-26T04:28:34;29.60;68.00
32400;DHT22;45045;45.440;9.178;2023-06-26T04:31:19;29.40;68.60
32400;DHT22;45045;45.440;9.178;2023-06-26T04:33:45;29.30;69.00
32400;DHT22;45045;45.440;9.178;2023-06-26T04:36:16;29.10;69.40
32400;DHT22;45045;45.440;9.178;2023-06-26T04:38:44;28.90;70.70
32400;DHT22;45045;45.440;9.178;2023-06-26T04:41:10;29.10;70.00
32400;DHT22;45045;45.440;9.178;2023-06-26T04:43:36;29.10;69.60
32400;DHT22;45045;45.440;9.178;2023-06-26T04:46:05;29.30;69.30
32400;DHT22;45045;45.440;9.178;2023-06-26T04:48:31;29.30;69.20
32400;DHT22;45045;45.440;9.178;2023-06-26T04:50:57;29.40;69.20
32400;DHT22;45045;45.440;9.178;2023-06-26T04:53:25;29.50;68.60
32400;DHT22;45045;45.440;9.178;2023-06-26T04:55:56;29.60;68.50
32400;DHT22;45045;45.440;9.178;2023-06-26T04:58:22;29.70;68.10
32400;DHT22;45045;45.440;9.178;2023-06-26T05:00:48;29.70;69.00
32400;DHT22;45045;45.440;9.178;2023-06-26T05:03:18;29.60;68.40
32400;DHT22;45045;45.440;9.178;2023-06-26T05:05:45;29.10;69.60
32400;DHT22;45045;45.440;9.178;2023-06-26T05:08:23;28.80;70.50
32400;DHT22;45045;45.440;9.178;2023-06-26T05:10:49;28.90;70.80
32400;DHT22;45045;45.440;9.178;2023-06-26T05:13:15;28.80;70.90
32400;DHT22;45045;45.440;9.178;2023-06-26T05:15:43;28.80;70.70
32400;DHT22;45045;45.440;9.178;2023-06-26T05:18:09;29.00;70.60
32400;DHT22;45045;45.440;9.178;2023-06-26T05:20:36;29.00;70.80
32400;DHT22;45045;45.440;9.178;2023-06-26T05:23:02;29.00;70.70
32400;DHT22;45045;45.440;9.178;2023-06-26T05:25:29;28.90;70.50
32400;DHT22;45045;45.440;9.178;2023-06-26T05:27:57;29.00;70.60
32400;DHT22;45045;45.440;9.178;2023-06-26T05:30:24;29.30;70.20
32400;DHT22;45045;45.440;9.178;2023-06-26T05:32:51;29.30;69.80
32400;DHT22;45045;45.440;9.178;2023-06-26T05:35:20;29.30;70.00
32400;DHT22;45045;45.440;9.178;2023-06-26T05:37:50;29.40;69.70
32400;DHT22;45045;45.440;9.178;2023-06-26T05:40:18;29.10;69.70
32400;DHT22;45045;45.440;9.178;2023-06-26T05:42:44;29.00;70.60
32400;DHT22;45045;45.440;9.178;2023-06-26T05:45:10;28.80;70.40
32400;DHT22;45045;45.440;9.178;2023-06-26T05:47:36;28.90;70.80
32400;DHT22;45045;45.440;9.178;2023-06-26T05:50:04;29.00;70.70
32400;DHT22;45045;45.440;9.178;2023-06-26T05:52:30;29.10;70.40
32400;DHT22;45045;45.440;9.178;2023-06-26T05:54:56;29.00;70.00
32400;DHT22;45045;45.440;9.178;2023-06-26T05:57:29;29.00;70.90
32400;DHT22;45045;45.440;9.178;2023-06-26T05:59:55;29.00;70.50
32400;DHT22;45045;45.440;9.178;2023-06-26T06:02:39;28.80;71.00
32400;DHT22;45045;45.440;9.178;2023-06-26T06:05:07;28.60;70.80
32400;DHT22;45045;45.440;9.178;2023-06-26T06:07:33;28.80;70.80
32400;DHT22;45045;45.440;9.178;2023-06-26T06:10:00;28.90;70.60
32400;DHT22;45045;45.440;9.178;2023-06-26T06:12:27;29.10;69.90
32400;DHT22;45045;45.440;9.178;2023-06-26T06:14:55;29.00;70.10
32400;DHT22;45045;45.440;9.178;2023-06-26T06:17:21;29.30;70.20
32400;DHT22;45045;45.440;9.178;2023-06-26T06:19:47;29.40;69.30
32400;DHT22;45045;45.440;9.178;2023-06-26T06:22:13;29.50;69.20
32400;DHT22;45045;45.440;9.178;2023-06-26T06:24:39;29.40;69.70
32400;DHT22;45045;45.440;9.178;2023-06-26T06:27:05;29.30;70.30
32400;DHT22;45045;45.440;9.178;2023-06-26T06:29:34;29.30;70.10
32400;DHT22;45045;45.440;9.178;2023-06-26T06:31:59;29.40;69.90
32400;DHT22;45045;45.440;9.178;2023-06-26T06:34:25;29.30;69.20
32400;DHT22;45045;45.440;9.178;2023-06-26T06:36:51;29.50;69.30
32400;DHT22;45045;45.440;9.178;2023-06-26T06:39:17;29.40;68.70
32400;DHT22;45045;45.440;9.178;2023-06-26T06:41:43;29.40;68.70
32400;DHT22;45045;45.440;9.178;2023-06-26T06:44:09;29.30;68.80
32400;DHT22;45045;45.440;9.178;2023-06-26T06:46:34;29.20;69.00
32400;DHT22;45045;45.440;9.178;2023-06-26T06:55:53;28.90;70.30
32400;DHT22;45045;45.440;9.178;2023-06-26T06:58:21;29.10;70.70
32400;DHT22;45045;45.440;9.178;2023-06-26T07:00:48;29.30;69.60
32400;DHT22;45045;45.440;9.178;2023-06-26T07:03:20;29.50;69.00
32400;DHT22;45045;45.440;9.178;2023-06-26T07:06:05;29.50;68.20
32400;DHT22;45045;45.440;9.178;2023-06-26T07:08:31;29.70;68.20
32400;DHT22;45045;45.440;9.178;2023-06-26T07:10:56;29.70;68.20
32400;DHT22;45045;45.440;9.178;2023-06-26T07:13:25;29.80;68.00
32400;DHT22;45045;45.440;9.178;2023-06-26T07:15:51;29.80;67.90
32400;DHT22;45045;45.440;9.178;2023-06-26T07:18:19;29.90;67.80
32400;DHT22;45045;45.440;9.178;2023-06-26T07:20:44;29.90;66.80
32400;DHT22;45045;45.440;9.178;2023-06-26T07:23:11;29.70;67.40
32400;DHT22;45045;45.440;9.178;2023-06-26T07:25:37;29.80;67.80
32400;DHT22;45045;45.440;9.178;2023-06-26T07:28:03;29.70;67.60
32400;DHT22;45045;45.440;9.178;2023-06-26T07:30:31;29.80;68.10
32400;DHT22;45045;45.440;9.178;2023-06-26T07:33:01;29.70;69.50
32400;DHT22;45045;45.440;9.178;2023-06-26T07:35:27;29.60;69.60
32400;DHT22;45045;45.440;9.178;2023-06-26T07:37:53;29.50;69.80
32400;DHT22;45045;45.440;9.178;2023-06-26T07:40:37;29.50;70.10
32400;DHT22;45045;45.440;9.178;2023-06-26T07:43:09;29.70;69.60
32400;DHT22;45045;45.440;9.178;2023-06-26T07:45:37;29.90;69.40
32400;DHT22;45045;45.440;9.178;2023-06-26T07:48:03;30.00;68.90
32400;DHT22;45045;45.440;9.178;2023-06-26T15:46:33;34.80;57.10
32400;DHT22;45045;45.440;9.178;2023-06-26T15:49:02;35.00;56.80
32400;DHT22;45045;45.440;9.178;2023-06-26T15:51:28;35.20;56.40
32400;DHT22;45045;45.440;9.178;2023-06-26T15:53:57;35.30;56.60
32400;DHT22;45045;45.440;9.178;2023-06-26T15:56:35;35.30;56.40
32400;DHT22;45045;45.440;9.178;2023-06-26T15:59:01;35.30;56.70
32400;DHT22;45045;45.440;9.178;2023-06-26T16:01:26;35.20;57.00
32400;DHT22;45045;45.440;9.178;2023-06-26T16:03:55;35.10;57.20
32400;DHT22;45045;45.440;9.178;2023-06-26T16:06:24;35.10;57.60
32400;DHT22;45045;45.440;9.178;2023-06-26T16:08:55;35.30;57.40
32400;DHT22;45045;45.440;9.178;2023-06-26T16:11:25;35.30;57.20
32400;DHT22;45045;45.440;9.178;2023-06-26T16:13:51;35.20;57.20
32400;DHT22;45045;45.440;9.178;2023-06-26T16:16:29;35.10;57.30
32400;DHT22;45045;45.440;9.178;2023-06-26T16:18:55;35.10;56.80
32400;DHT22;45045;45.440;9.178;2023-06-26T16:21:26;35.10;57.10
32400;DHT22;45045;45.440;9.178;2023-06-26T16:23:54;35.00;57.10
32400;DHT22;45045;45.440;9.178;2023-06-26T16:26:19;35.10;57.60
32400;DHT22;45045;45.440;9.178;2023-06-26T16:56:45;34.70;58.60
32400;DHT22;45045;45.440;9.178;2023-06-26T17:17:11;34.50;57.80
32400;DHT22;45045;45.440;9.178;2023-06-26T17:20:13;34.70;58.20
32400;DHT22;45045;45.440;9.178;2023-06-26T17:50:00;34.60;57.90
32400;DHT22;45045;45.440;9.178;2023-06-26T17:52:34;34.60;57.80
32400;DHT22;45045;45.440;9.178;2023-06-26T18:24:07;34.60;56.80
32400;DHT22;45045;45.440;9.178;2023-06-26T18:51:18;34.60;58.30
32400;DHT22;45045;45.440;9.178;2023-06-26T18:54:04;34.40;59.50
32400;DHT22;45045;45.440;9.178;2023-06-26T18:56:31;34.20;59.80
32400;DHT22;45045;45.440;9.178;2023-06-26T18:59:08;34.20;60.00
32400;DHT22;45045;45.440;9.178;2023-06-26T19:04:54;34.20;60.50
32400;DHT22;45045;45.440;9.178;2023-06-26T19:17:14;34.30;61.10
32400;DHT22;45045;45.440;9.178;2023-06-26T19:20:05;34.30;59.50
32400;DHT22;45045;45.440;9.178;2023-06-26T19:22:47;34.30;59.50
32400;DHT22;45045;45.440;9.178;2023-06-26T19:25:35;34.10;59.20
32400;DHT22;45045;45.440;9.178;2023-06-26T19:28:24;34.10;59.40
32400;DHT22;45045;45.440;9.178;2023-06-26T19:31:54;34.10;59.20
32400;DHT22;45045;45.440;9.178;2023-06-26T19:42:39;33.90;58.80
32400;DHT22;45045;45.440;9.178;2023-06-26T20:11:38;33.60;60.30
32400;DHT22;45045;45.440;9.178;2023-06-26T20:18:04;33.40;60.80
32400;DHT22;45045;45.440;9.178;2023-06-26T20:20:56;33.40;61.20
32400;DHT22;45045;45.440;9.178;2023-06-26T21:31:17;33.10;63.50
32400;DHT22;45045;45.440;9.178;2023-06-26T21:34:12;33.10;63.50
32400;DHT22;45045;45.440;9.178;2023-06-26T21:40:25;33.00;63.70
32400;DHT22;45045;45.440;9.178;2023-06-26T21:43:28;32.90;64.10
32400;DHT22;45045;45.440;9.178;2023-06-26T21:55:56;33.20;63.30
32400;DHT22;45045;45.440;9.178;2023-06-26T22:01:57;33.00;64.40
32400;DHT22;45045;45.440;9.178;2023-06-26T22:19:42;33.00;63.30
32400;DHT22;45045;45.440;9.178;2023-06-26T22:33:17;32.70;64.70
32400;DHT22;45045;45.440;9.178;2023-06-26T22:43:27;32.70;65.10
32400;DHT22;45045;45.440;9.178;2023-06-26T22:46:35;32.50;65.50
32400;DHT22;45045;45.440;9.178;2023-06-26T22:53:03;32.40;66.30
32400;DHT22;45045;45.440;9.178;2023-06-26T23:02:20;32.30;66.60
32400;DHT22;45045;45.440;9.178;2023-06-26T23:05:17;32.40;66.40
32400;DHT22;45045;45.440;9.178;2023-06-26T23:08:12;32.50;66.20
32400;DHT22;45045;45.440;9.178;2023-06-26T23:14:26;32.40;66.30
32400;DHT22;45045;45.440;9.178;2023-06-26T23:21:07;32.50;66.00
32400;DHT22;45045;45.440;9.178;2023-06-26T23:24:05;32.60;65.80
32400;DHT22;45045;45.440;9.178;2023-06-26T23:27:05;32.60;65.60
32400;DHT22;45045;45.440;9.178;2023-06-26T23:29:43;32.50;65.60
32400;DHT22;45045;45.440;9.178;2023-06-26T23:32:25;32.40;65.90
32400;DHT22;45045;45.440;9.178;2023-06-26T23:35:14;32.50;65.90
32400;DHT22;45045;45.440;9.178;2023-06-26T23:38:00;32.50;65.70
32400;DHT22;45045;45.440;9.178;2023-06-26T23:40:46;32.50;65.90
32400;DHT22;45045;45.440;9.178;2023-06-26T23:47:36;32.30;66.20
32400;DHT22;45045;45.440;9.178;2023-06-26T23:50:17;32.30;66.20
32400;DHT22;45045;45.440;9.178;2023-06-26T23:53:29;32.20;66.50
32400;DHT22;45045;45.440;9.178;2023-06-26T23:56:00;32.30;66.50
32400;DHT22;45045;45.440;9.178;2023-06-26T23:58:55;32.40;66.40
